Time;durP1;ratioP1;P1;durP2;ratioP2;P2;SDS_P1;SDS_P2;PMS_P1;PMS_P2;Temp;Humidity;BMP_temperature;BMP_pressure;BME280_temperature;BME280_humidity;BME280_pressure;Samples;Min_cycle;Max_cycle;Signal;HPM_P1;HPM_P2
2022/03/29 00:00:38;;;;;;;19.20;11.90;;;6.60;99.90;;;;;;5034978;28;20206;-62
2022/03/29 00:03:07;;;;;;;19.40;10.30;;;6.60;99.90;;;;;;5035587;28;20484;-66
2022/03/29 00:05:35;;;;;;;12.50;11.20;;;6.60;99.90;;;;;;5035108;28;20935;-64
2022/03/29 00:08:01;;;;;;;19.00;11.90;;;6.70;99.90;;;;;;5035030;28;20847;-62
2022/03/29 00:10:27;;;;;;;24.47;11.53;;;6.70;99.90;;;;;;5034990;28;20795;-65
2022/03/29 00:12:53;;;;;;;27.00;12.43;;;6.50;99.90;;;;;;5035623;28;20415;-62
2022/03/29 00:15:23;;;;;;;22.53;12.73;;;6.50;99.90;;;;;;5035568;28;20407;-62
2022/03/29 00:17:49;;;;;;;19.07;10.90;;;6.40;99.90;;;;;;5035431;28;20411;-66
2022/03/29 00:20:16;;;;;;;23.87;11.80;;;6.40;1.00;;;;;;5034605;28;20794;-65
2022/03/29 00:22:42;;;;;;;24.30;11.87;;;6.40;1.00;;;;;;5035372;28;20768;-61
2022/03/29 00:25:08;;;;;;;23.17;12.13;;;6.40;1.00;;;;;;5035412;28;20401;-62
2022/03/29 00:27:37;;;;;;;16.87;11.00;;;6.50;1.00;;;;;;5035347;28;20254;-62
2022/03/29 00:30:11;;;;;;;22.90;10.87;;;6.40;1.00;;;;;;5034702;28;20402;-65
2022/03/29 00:32:37;;;;;;;21.10;9.20;;;6.30;1.00;;;;;;5035085;28;20456;-62
2022/03/29 00:35:04;;;;;;;13.93;8.00;;;6.30;1.00;;;;;;5035211;28;20435;-65
2022/03/29 00:37:29;;;;;;;17.67;7.10;;;6.20;99.90;;;;;;5035117;28;20464;-65
2022/03/29 00:39:55;;;;;;;22.60;6.47;;;6.10;99.90;;;;;;5034236;28;20450;-64
2022/03/29 00:42:20;;;;;;;12.63;5.90;;;5.90;99.90;;;;;;5034863;28;20660;-65
2022/03/29 00:44:46;;;;;;;21.00;4.77;;;5.70;99.90;;;;;;5035077;28;20178;-65
2022/03/29 00:47:12;;;;;;;16.80;5.47;;;5.60;99.90;;;;;;5034847;28;20214;-65
2022/03/29 00:49:38;;;;;;;27.47;6.83;;;5.50;99.90;;;;;;5034172;28;20174;-65
2022/03/29 00:52:05;;;;;;;14.03;4.40;;;5.50;99.90;;;;;;5034562;28;20440;-66
2022/03/29 00:54:34;;;;;;;12.80;4.40;;;5.40;99.90;;;;;;5034865;28;20247;-65
2022/03/29 00:57:01;;;;;;;8.33;4.03;;;5.30;99.90;;;;;;5034751;28;20440;-61
2022/03/29 00:59:28;;;;;;;20.60;5.07;;;5.40;99.90;;;;;;5033947;28;20452;-66
2022/03/29 01:01:56;;;;;;;20.73;4.57;;;5.40;99.90;;;;;;5034354;28;20934;-66
2022/03/29 01:04:22;;;;;;;14.90;5.17;;;5.40;99.90;;;;;;5034478;28;20409;-66
2022/03/29 01:06:48;;;;;;;9.20;5.30;;;5.30;99.90;;;;;;5034497;28;20429;-65
2022/03/29 01:09:14;;;;;;;19.17;5.23;;;5.40;99.90;;;;;;5033829;28;20414;-66
2022/03/29 01:11:40;;;;;;;10.47;3.47;;;5.30;99.90;;;;;;5034317;28;20198;-65
2022/03/29 01:14:06;;;;;;;10.20;4.40;;;5.40;99.90;;;;;;5034340;28;20398;-62
2022/03/29 01:19:19;;;;;;;23.87;5.73;;;5.30;99.90;;;;;;5033884;28;20396;-62
2022/03/29 01:22:02;;;;;;;8.47;3.23;;;5.20;99.90;;;;;;5034259;28;20430;-62
2022/03/29 01:24:29;;;;;;;10.80;5.10;;;5.20;99.90;;;;;;5034173;28;20418;-62
2022/03/29 01:26:59;;;;;;;17.60;4.70;;;5.20;99.90;;;;;;5034020;28;20549;-62
2022/03/29 01:29:26;;;;;;;15.03;4.80;;;5.10;99.90;;;;;;5033514;28;20408;-65
2022/03/29 01:31:52;;;;;;;11.73;4.13;;;5.00;99.90;;;;;;5034130;28;20430;-62
2022/03/29 01:34:21;;;;;;;14.20;4.23;;;4.90;99.90;;;;;;5033950;28;20418;-66
2022/03/29 01:36:47;;;;;;;15.03;4.37;;;5.00;99.90;;;;;;5033977;28;20443;-66
2022/03/29 01:39:13;;;;;;;11.03;4.27;;;4.90;99.90;;;;;;5033222;28;20958;-62
2022/03/29 01:41:39;;;;;;;13.63;4.37;;;4.90;99.90;;;;;;5033735;28;20532;-66
2022/03/29 01:44:08;;;;;;;17.77;4.70;;;4.80;99.90;;;;;;5033923;28;20252;-65
2022/03/29 01:46:34;;;;;;;10.40;4.73;;;4.90;1.00;;;;;;5033740;28;20171;-62
2022/03/29 01:49:01;;;;;;;13.90;3.83;;;4.90;1.00;;;;;;5033257;28;20901;-66
2022/03/29 01:51:27;;;;;;;9.90;3.83;;;4.90;1.00;;;;;;5033724;28;20238;-65
2022/03/29 01:53:54;;;;;;;6.23;4.60;;;4.90;1.00;;;;;;5033646;28;20451;-65
2022/03/29 01:56:20;;;;;;;14.03;4.60;;;4.80;1.00;;;;;;5033615;28;20400;-62
2022/03/29 01:58:46;;;;;;;13.80;4.33;;;4.80;1.00;;;;;;5032888;28;20398;-65
2022/03/29 02:01:11;;;;;;;11.13;4.43;;;4.80;1.00;;;;;;5033719;28;20206;-62
2022/03/29 02:03:37;;;;;;;14.23;4.27;;;4.70;1.00;;;;;;5033661;28;20172;-66
2022/03/29 02:06:03;;;;;;;11.60;3.93;;;4.70;1.00;;;;;;5033487;28;20537;-61
2022/03/29 02:08:29;;;;;;;15.23;4.37;;;4.70;1.00;;;;;;5032760;28;20262;-69
2022/03/29 02:10:55;;;;;;;10.87;4.00;;;4.70;1.00;;;;;;5033306;28;20174;-65
2022/03/29 02:13:21;;;;;;;18.67;4.60;;;4.60;1.00;;;;;;5033499;28;20418;-62
2022/03/29 02:15:47;;;;;;;20.73;4.47;;;4.60;1.00;;;;;;5033500;28;20399;-65
2022/03/29 02:18:13;;;;;;;11.07;4.73;;;4.50;1.00;;;;;;5033535;28;20406;-62
2022/03/29 02:20:39;;;;;;;13.70;3.80;;;4.50;1.00;;;;;;5032740;28;20193;-65
2022/03/29 02:23:06;;;;;;;14.23;4.37;;;4.40;1.00;;;;;;5033334;28;20894;-62
2022/03/29 02:25:33;;;;;;;9.30;4.13;;;4.50;1.00;;;;;;5033424;28;20178;-62
2022/03/29 02:27:59;;;;;;;19.93;4.10;;;4.50;1.00;;;;;;5033378;28;20921;-62
2022/03/29 02:30:25;;;;;;;9.97;4.30;;;4.50;1.00;;;;;;5035059;28;20479;-62
2022/03/29 02:32:51;;;;;;;15.60;3.47;;;4.50;1.00;;;;;;5037312;28;20507;-66
2022/03/29 02:35:16;;;;;;;24.73;4.60;;;4.40;1.00;;;;;;5037428;28;20437;-62
2022/03/29 02:37:42;;;;;;;15.20;4.20;;;4.40;1.00;;;;;;5037359;28;20212;-62
2022/03/29 02:40:09;;;;;;;13.53;4.10;;;4.50;1.00;;;;;;5036517;28;20202;-62
2022/03/29 02:42:43;;;;;;;13.73;4.03;;;4.50;1.00;;;;;;5037150;28;20495;-62
2022/03/29 02:45:15;;;;;;;13.03;4.10;;;4.50;1.00;;;;;;5037097;28;20432;-62
2022/03/29 02:47:44;;;;;;;13.20;4.00;;;4.40;1.00;;;;;;5037152;28;20783;-62
2022/03/29 02:50:10;;;;;;;19.43;4.23;;;4.40;1.00;;;;;;5036446;28;20412;-65
2022/03/29 02:53:03;;;;;;;8.27;3.60;;;4.40;1.00;;;;;;5037014;28;20414;-65
2022/03/29 02:55:31;;;;;;;14.70;3.77;;;4.40;1.00;;;;;;5037605;28;20436;-62
2022/03/29 02:57:57;;;;;;;14.00;3.80;;;4.30;1.00;;;;;;5036936;28;20505;-62
2022/03/29 03:00:24;;;;;;;10.00;4.00;;;4.30;1.00;;;;;;5036202;28;20440;-62
2022/03/29 03:02:54;;;;;;;19.40;4.60;;;4.40;1.00;;;;;;5035444;28;20877;-65
2022/03/29 03:05:21;;;;;;;13.83;3.50;;;4.40;1.00;;;;;;5036773;28;20412;-66
2022/03/29 03:07:47;;;;;;;6.53;3.30;;;4.30;1.00;;;;;;5036647;28;20985;-61
2022/03/29 03:10:14;;;;;;;6.63;2.73;;;4.20;1.00;;;;;;5036079;28;20458;-62
2022/03/29 03:12:45;;;;;;;13.27;4.03;;;4.10;1.00;;;;;;5036654;28;20427;-66
2022/03/29 03:15:13;;;;;;;12.53;4.20;;;4.10;1.00;;;;;;5036446;28;20448;-62
2022/03/29 03:17:39;;;;;;;16.53;5.87;;;4.00;1.00;;;;;;5035316;28;20425;-66
2022/03/29 03:20:05;;;;;;;11.23;4.43;;;4.00;1.00;;;;;;5035847;28;20451;-62
2022/03/29 03:22:32;;;;;;;10.77;4.50;;;4.00;1.00;;;;;;5036527;28;20668;-62
2022/03/29 03:24:57;;;;;;;8.67;3.40;;;4.00;1.00;;;;;;5036521;28;20404;-65
2022/03/29 03:27:23;;;;;;;14.33;2.83;;;4.00;1.00;;;;;;5036317;28;20406;-65
2022/03/29 03:29:49;;;;;;;18.60;4.30;;;3.90;1.00;;;;;;5035715;28;20180;-65
2022/03/29 03:32:15;;;;;;;12.53;4.30;;;3.90;1.00;;;;;;5036322;28;20255;-65
2022/03/29 03:34:41;;;;;;;14.17;3.90;;;3.90;1.00;;;;;;5036304;28;20215;-62
2022/03/29 03:37:08;;;;;;;15.27;4.07;;;3.90;1.00;;;;;;5036266;28;20433;-62
2022/03/29 03:39:35;;;;;;;11.20;4.30;;;3.90;1.00;;;;;;5035306;28;20491;-62
2022/03/29 03:42:01;;;;;;;4.20;3.57;;;3.90;1.00;;;;;;5034834;28;20416;-61
2022/03/29 03:44:27;;;;;;;5.23;3.47;;;3.90;1.00;;;;;;5034832;28;20434;-62
2022/03/29 03:46:53;;;;;;;11.10;3.10;;;3.90;1.00;;;;;;5036140;28;20486;-62
2022/03/29 03:49:19;;;;;;;15.20;3.77;;;4.00;1.00;;;;;;5035338;28;20521;-62
2022/03/29 03:51:45;;;;;;;14.33;3.63;;;3.90;1.00;;;;;;5035821;28;20427;-65
2022/03/29 03:54:10;;;;;;;20.00;3.70;;;3.90;1.00;;;;;;5035928;28;20964;-66
2022/03/29 03:56:36;;;;;;;9.80;3.53;;;3.80;1.00;;;;;;5035914;28;20204;-66
2022/03/29 03:59:02;;;;;;;10.57;2.83;;;3.80;1.00;;;;;;5035131;28;20177;-66
2022/03/29 04:01:28;;;;;;;8.63;3.07;;;3.80;1.00;;;;;;5035618;28;20964;-66
2022/03/29 04:03:53;;;;;;;17.37;4.30;;;3.80;1.00;;;;;;5035702;28;20406;-65
2022/03/29 04:06:19;;;;;;;8.93;3.93;;;3.70;1.00;;;;;;5035728;28;20204;-65
2022/03/29 04:08:45;;;;;;;15.47;4.13;;;3.70;1.00;;;;;;5035065;28;20285;-66
2022/03/29 04:11:11;;;;;;;4.17;2.57;;;3.70;1.00;;;;;;5035474;28;20404;-65
2022/03/29 04:13:36;;;;;;;8.77;3.40;;;3.70;1.00;;;;;;5035362;28;20173;-65
2022/03/29 04:16:03;;;;;;;2.67;2.43;;;3.70;1.00;;;;;;5035458;28;20179;-65
2022/03/29 04:18:29;;;;;;;20.57;4.33;;;3.70;1.00;;;;;;5033599;28;20575;-69
2022/03/29 04:20:55;;;;;;;4.37;2.93;;;3.70;1.00;;;;;;5035396;28;20450;-61
2022/03/29 04:23:20;;;;;;;5.80;3.23;;;3.70;1.00;;;;;;5035393;28;20432;-61
2022/03/29 04:25:46;;;;;;;11.47;3.00;;;3.70;1.00;;;;;;5035272;28;20207;-63
2022/03/29 04:28:12;;;;;;;6.50;3.37;;;3.60;1.00;;;;;;5035381;28;20170;-65
2022/03/29 04:30:38;;;;;;;14.87;3.97;;;3.60;1.00;;;;;;5034580;28;20181;-61
2022/03/29 04:33:04;;;;;;;4.87;2.70;;;3.50;1.00;;;;;;5035188;28;20201;-62
2022/03/29 04:35:29;;;;;;;9.90;3.33;;;3.50;1.00;;;;;;5035209;28;20461;-64
2022/03/29 04:37:55;;;;;;;9.40;3.20;;;3.50;1.00;;;;;;5035142;28;20199;-62
2022/03/29 04:40:21;;;;;;;9.10;3.50;;;3.50;1.00;;;;;;5034318;28;20748;-62
2022/03/29 04:42:49;;;;;;;5.93;3.30;;;3.50;1.00;;;;;;5034944;28;20219;-65
2022/03/29 04:45:16;;;;;;;7.80;2.70;;;3.50;1.00;;;;;;5035053;28;20396;-62
2022/03/29 04:47:43;;;;;;;7.10;2.83;;;3.40;1.00;;;;;;5033447;28;20407;-66
2022/03/29 04:50:10;;;;;;;5.80;4.00;;;3.30;1.00;;;;;;5034136;28;20410;-62
2022/03/29 04:52:37;;;;;;;10.67;4.43;;;3.40;1.00;;;;;;5034505;28;20457;-62
2022/03/29 04:55:04;;;;;;;14.57;3.20;;;3.40;1.00;;;;;;5034815;28;20456;-61
2022/03/29 04:57:30;;;;;;;10.60;5.53;;;3.40;1.00;;;;;;5034784;28;20716;-62
2022/03/29 04:59:56;;;;;;;9.17;3.70;;;3.40;1.00;;;;;;5033849;28;20462;-63
2022/03/29 05:02:23;;;;;;;11.10;3.00;;;3.50;1.00;;;;;;5034539;28;20207;-61
2022/03/29 05:04:49;;;;;;;13.97;4.43;;;3.40;1.00;;;;;;5034653;28;20168;-62
2022/03/29 05:07:15;;;;;;;6.43;4.07;;;3.40;1.00;;;;;;5034506;28;20422;-61
2022/03/29 05:09:41;;;;;;;11.40;4.00;;;3.40;1.00;;;;;;5033751;28;20914;-62
2022/03/29 05:12:07;;;;;;;6.37;3.23;;;3.40;1.00;;;;;;5034147;28;20422;-62
2022/03/29 05:14:34;;;;;;;17.20;3.90;;;3.40;1.00;;;;;;5034718;28;20172;-61
2022/03/29 05:17:00;;;;;;;5.30;3.47;;;3.30;1.00;;;;;;5034447;28;20533;-65
2022/03/29 05:19:25;;;;;;;9.30;3.30;;;3.30;1.00;;;;;;5033724;28;20402;-62
2022/03/29 05:21:51;;;;;;;12.77;2.87;;;3.40;1.00;;;;;;5034139;28;20192;-64
2022/03/29 05:24:16;;;;;;;13.70;3.93;;;3.40;1.00;;;;;;5034225;28;20254;-65
2022/03/29 05:26:42;;;;;;;7.20;4.07;;;3.40;1.00;;;;;;5034127;28;20226;-65
2022/03/29 05:29:09;;;;;;;9.10;3.30;;;3.40;1.00;;;;;;5033453;28;20290;-61
2022/03/29 05:31:34;;;;;;;4.30;3.33;;;3.40;1.00;;;;;;5034082;28;20188;-61
2022/03/29 05:34:00;;;;;;;3.37;3.07;;;3.40;1.00;;;;;;5033949;28;20410;-66
2022/03/29 05:36:26;;;;;;;7.20;3.43;;;3.40;1.00;;;;;;5034017;28;20258;-64
2022/03/29 05:38:52;;;;;;;6.03;3.30;;;3.40;1.00;;;;;;5033373;28;20164;-64
2022/03/29 05:41:21;;;;;;;4.20;3.10;;;3.40;1.00;;;;;;5033814;28;20203;-66
2022/03/29 05:43:50;;;;;;;11.33;3.57;;;3.50;1.00;;;;;;5034013;28;20398;-67
2022/03/29 05:49:01;;;;;;;10.33;3.33;;;3.70;1.00;;;;;;5033303;28;20448;-63
2022/03/29 05:51:31;;;;;;;7.07;2.63;;;3.60;1.00;;;;;;5033710;28;20426;-67
2022/03/29 05:54:01;;;;;;;9.43;3.40;;;3.60;1.00;;;;;;5033756;28;20875;-63
2022/03/29 05:56:26;;;;;;;6.93;3.00;;;3.60;1.00;;;;;;5033554;28;20404;-67
2022/03/29 05:58:53;;;;;;;7.70;2.63;;;3.70;1.00;;;;;;5033016;28;20775;-63
2022/03/29 06:01:19;;;;;;;12.17;3.70;;;3.70;1.00;;;;;;5033570;28;20989;-63
2022/03/29 06:03:45;;;;;;;5.53;2.80;;;3.80;1.00;;;;;;5033007;28;20407;-63
2022/03/29 06:06:10;;;;;;;18.33;3.83;;;3.70;1.00;;;;;;5032940;28;20502;-68
2022/03/29 06:08:37;;;;;;;7.27;2.73;;;3.70;1.00;;;;;;5032566;28;20231;-64
2022/03/29 06:11:04;;;;;;;8.00;2.80;;;3.70;1.00;;;;;;5033555;28;20445;-68
2022/03/29 06:13:30;;;;;;;8.63;3.20;;;3.80;1.00;;;;;;5033452;28;20202;-63
2022/03/29 06:15:56;;;;;;;11.50;2.97;;;3.90;1.00;;;;;;5033347;28;20497;-63
2022/03/29 06:18:22;;;;;;;9.67;3.50;;;3.90;1.00;;;;;;5033145;28;20442;-65
2022/03/29 06:20:48;;;;;;;9.80;3.13;;;3.90;1.00;;;;;;5032462;28;20196;-63
2022/03/29 06:23:14;;;;;;;6.90;2.70;;;3.90;1.00;;;;;;5033291;28;20414;-63
2022/03/29 06:25:40;;;;;;;8.83;2.93;;;4.00;1.00;;;;;;5033337;28;20401;-63
2022/03/29 06:28:06;;;;;;;7.03;2.67;;;4.10;1.00;;;;;;5033422;28;20398;-63
2022/03/29 06:30:32;;;;;;;6.17;2.57;;;4.00;1.00;;;;;;5032705;28;20171;-66
2022/03/29 06:32:58;;;;;;;12.83;2.63;;;4.10;1.00;;;;;;5033062;28;20217;-63
2022/03/29 06:35:27;;;;;;;4.47;3.30;;;4.10;1.00;;;;;;5033543;28;20682;-67
2022/03/29 06:37:55;;;;;;;6.13;2.53;;;4.10;1.00;;;;;;5033175;28;20741;-67
2022/03/29 06:40:22;;;;;;;11.60;3.10;;;4.20;1.00;;;;;;5032596;28;20943;-67
2022/03/29 06:42:48;;;;;;;14.93;4.30;;;4.30;1.00;;;;;;5033042;28;20428;-64
2022/03/29 06:45:14;;;;;;;5.87;3.73;;;4.40;1.00;;;;;;5033169;28;20505;-62
2022/03/29 06:47:41;;;;;;;6.83;3.00;;;4.40;1.00;;;;;;5033183;28;20417;-63
2022/03/29 06:50:08;;;;;;;4.83;2.30;;;4.40;1.00;;;;;;5032512;28;20759;-67
2022/03/29 06:52:45;;;;;;;5.80;2.30;;;4.40;1.00;;;;;;5033128;28;20499;-66
2022/03/29 06:55:12;;;;;;;8.30;2.63;;;4.40;1.00;;;;;;5033039;28;20526;-65
2022/03/29 06:57:38;;;;;;;6.07;2.80;;;4.50;1.00;;;;;;5033047;28;20402;-63
2022/03/29 07:00:06;;;;;;;4.70;2.60;;;4.60;1.00;;;;;;5032271;28;20552;-63
2022/03/29 07:02:32;;;;;;;9.07;3.83;;;4.60;1.00;;;;;;5032934;28;20499;-65
2022/03/29 07:04:57;;;;;;;7.50;2.80;;;4.70;1.00;;;;;;5032861;28;20458;-66
2022/03/29 07:07:23;;;;;;;7.73;3.60;;;4.80;1.00;;;;;;5032874;28;20186;-65
2022/03/29 07:12:45;;;;;;;12.93;2.83;;;4.90;1.00;;;;;;5032909;28;20617;-60
2022/03/29 07:15:10;;;;;;;11.90;2.73;;;5.00;1.00;;;;;;5032984;28;20413;-64
2022/03/29 07:17:36;;;;;;;8.80;3.03;;;5.10;1.00;;;;;;5036561;28;20407;-60
2022/03/29 07:20:02;;;;;;;7.13;3.00;;;5.00;1.00;;;;;;5036007;28;20198;-65
2022/03/29 07:22:27;;;;;;;9.13;2.90;;;5.10;1.00;;;;;;5036463;28;20244;-66
2022/03/29 07:24:53;;;;;;;3.57;2.40;;;5.30;1.00;;;;;;5036422;28;20591;-64
2022/03/29 07:27:19;;;;;;;14.67;3.43;;;5.40;1.00;;;;;;5036457;28;20173;-66
2022/03/29 07:29:45;;;;;;;9.17;3.20;;;5.40;99.90;;;;;;5035821;28;20408;-63
2022/03/29 07:32:10;;;;;;;10.70;3.17;;;5.50;99.90;;;;;;5036443;28;20267;-63
2022/03/29 07:34:36;;;;;;;6.20;2.93;;;5.50;99.90;;;;;;5036460;28;20577;-62
2022/03/29 07:37:03;;;;;;;4.67;2.53;;;5.50;99.90;;;;;;5036318;28;20528;-65
2022/03/29 07:39:29;;;;;;;9.03;2.60;;;5.60;99.90;;;;;;5035476;28;20220;-62
2022/03/29 07:41:55;;;;;;;21.73;3.60;;;5.70;99.90;;;;;;5035980;28;20515;-62
2022/03/29 07:44:21;;;;;;;5.77;1.70;;;5.80;99.90;;;;;;5035531;28;20398;-62
2022/03/29 07:46:47;;;;;;;6.43;3.10;;;5.90;99.90;;;;;;5036165;28;20409;-60
2022/03/29 07:49:13;;;;;;;5.77;2.70;;;6.10;99.90;;;;;;5035332;28;20407;-63
2022/03/29 07:51:39;;;;;;;4.93;2.43;;;6.20;99.90;;;;;;5035935;28;20430;-60
2022/03/29 07:54:05;;;;;;;6.40;2.67;;;6.30;99.90;;;;;;5036057;28;20175;-66
2022/03/29 07:56:31;;;;;;;12.57;2.97;;;6.20;99.90;;;;;;5035882;28;20401;-66
2022/03/29 07:58:57;;;;;;;6.97;3.30;;;6.30;99.90;;;;;;5033893;28;20426;-67
2022/03/29 08:01:23;;;;;;;13.97;3.20;;;6.30;99.90;;;;;;5035573;28;20925;-63
2022/03/29 08:03:49;;;;;;;6.03;2.10;;;6.40;99.90;;;;;;5035872;28;20756;-60
2022/03/29 08:06:14;;;;;;;5.43;2.03;;;6.40;99.90;;;;;;5035792;28;20188;-66
2022/03/29 08:08:41;;;;;;;12.57;2.90;;;6.50;99.90;;;;;;5034988;28;20179;-67
2022/03/29 08:11:08;;;;;;;14.97;2.60;;;6.50;99.90;;;;;;5035466;28;20632;-66
2022/03/29 08:13:34;;;;;;;8.53;3.63;;;6.60;99.90;;;;;;5035492;28;20417;-66
2022/03/29 08:16:01;;;;;;;9.23;3.20;;;6.60;99.90;;;;;;5035655;28;20402;-63
2022/03/29 08:18:28;;;;;;;10.37;3.70;;;6.70;99.90;;;;;;5035460;28;20422;-63
2022/03/29 08:20:54;;;;;;;13.83;2.87;;;6.90;99.90;;;;;;5035389;28;20541;-63
2022/03/29 08:23:20;;;;;;;10.07;2.60;;;7.00;99.90;;;;;;5035259;28;20543;-68
2022/03/29 08:25:46;;;;;;;5.93;2.60;;;7.10;99.90;;;;;;5035229;28;20474;-67
2022/03/29 08:28:13;;;;;;;15.93;3.50;;;7.10;99.90;;;;;;5034573;28;20429;-65
2022/03/29 08:30:40;;;;;;;3.00;2.10;;;7.00;99.90;;;;;;5034717;28;20398;-60
2022/03/29 08:33:06;;;;;;;8.47;2.70;;;7.00;99.90;;;;;;5035238;28;20418;-67
2022/03/29 08:35:33;;;;;;;7.67;2.53;;;7.00;99.90;;;;;;5035023;28;20532;-63
2022/03/29 08:37:59;;;;;;;6.07;2.20;;;7.00;99.90;;;;;;5035154;28;20864;-65
2022/03/29 08:40:28;;;;;;;3.80;2.83;;;7.10;99.90;;;;;;5034306;28;20947;-60
2022/03/29 08:42:57;;;;;;;4.90;2.60;;;7.20;99.90;;;;;;5035055;28;20422;-63
2022/03/29 08:45:31;;;;;;;3.00;2.50;;;7.20;99.90;;;;;;5035092;28;20390;-67
2022/03/29 08:47:59;;;;;;;6.33;2.63;;;7.40;99.90;;;;;;5034940;28;20391;-63
2022/03/29 08:50:28;;;;;;;5.20;2.13;;;7.60;99.90;;;;;;5034165;28;20950;-67
2022/03/29 08:52:54;;;;;;;10.17;2.67;;;7.60;99.90;;;;;;5034840;28;20426;-63
2022/03/29 08:55:20;;;;;;;4.70;2.30;;;7.80;99.90;;;;;;5034816;28;20398;-67
2022/03/29 08:57:49;;;;;;;2.13;1.93;;;8.00;99.90;;;;;;5034711;28;20399;-64
2022/03/29 09:00:16;;;;;;;6.63;2.70;;;8.10;99.90;;;;;;5032760;28;21037;-64
2022/03/29 09:02:42;;;;;;;18.70;3.30;;;8.30;99.90;;;;;;5034667;28;20419;-67
2022/03/29 09:05:22;;;;;;;9.40;3.27;;;8.50;99.90;;;;;;5034660;28;20417;-66
2022/03/29 09:07:51;;;;;;;12.33;2.77;;;8.60;99.90;;;;;;5034422;28;20528;-64
2022/03/29 09:10:18;;;;;;;11.90;3.70;;;8.80;99.90;;;;;;5033804;28;20409;-67
2022/03/29 09:12:44;;;;;;;18.30;2.90;;;8.80;99.90;;;;;;5034601;28;20430;-63
2022/03/29 09:15:10;;;;;;;14.33;3.13;;;8.90;99.90;;;;;;5034539;28;20923;-68
2022/03/29 09:17:38;;;;;;;9.80;2.50;;;9.00;99.90;;;;;;5034299;28;20423;-64
2022/03/29 09:20:24;;;;;;;5.27;1.93;;;9.20;99.90;;;;;;5032289;28;20212;-64
2022/03/29 09:22:52;;;;;;;5.03;3.10;;;9.20;99.90;;;;;;5034300;28;20461;-63
2022/03/29 09:25:26;;;;;;;9.50;2.20;;;9.40;99.90;;;;;;5034137;28;20400;-63
2022/03/29 09:27:54;;;;;;;6.80;2.10;;;9.90;99.90;;;;;;5034110;28;20412;-68
2022/03/29 09:30:21;;;;;;;6.90;3.33;;;10.20;99.90;;;;;;5032077;28;20753;-67
2022/03/29 09:33:16;;;;;;;3.43;2.37;;;10.40;99.90;;;;;;5034030;28;20941;-63
2022/03/29 09:36:04;;;;;;;3.00;2.07;;;10.60;99.90;;;;;;5035203;28;20927;-67
2022/03/29 09:38:32;;;;;;;5.27;3.00;;;10.80;99.90;;;;;;5033368;28;20414;-70
2022/03/29 09:40:59;;;;;;;3.80;3.40;;;10.80;99.90;;;;;;5033783;28;20454;-64
2022/03/29 09:43:26;;;;;;;4.20;2.17;;;11.00;99.90;;;;;;5033929;28;20386;-67
2022/03/29 09:45:55;;;;;;;2.90;2.40;;;11.30;99.90;;;;;;5033967;28;20398;-65
2022/03/29 09:48:25;;;;;;;10.70;2.60;;;11.60;99.90;;;;;;5033625;28;20394;-64
2022/03/29 09:51:15;;;;;;;8.93;2.73;;;11.30;99.90;;;;;;5033247;28;20420;-63
2022/03/29 09:53:51;;;;;;;7.50;3.03;;;11.20;99.90;;;;;;5033797;28;20907;-67
2022/03/29 09:56:24;;;;;;;5.50;2.53;;;11.00;99.90;;;;;;5033638;28;20401;-63
2022/03/29 09:59:11;;;;;;;9.03;1.97;;;11.40;99.90;;;;;;5033007;28;20936;-67
2022/03/29 10:01:56;;;;;;;4.87;2.67;;;12.00;99.90;;;;;;5033495;28;20461;-63
2022/03/29 10:04:23;;;;;;;12.97;2.87;;;11.90;99.90;;;;;;5033475;28;20402;-64
2022/03/29 10:06:52;;;;;;;9.17;2.53;;;11.80;99.90;;;;;;5033474;28;20397;-67
2022/03/29 10:09:26;;;;;;;6.10;2.17;;;11.50;99.90;;;;;;5032938;28;20456;-67
2022/03/29 10:11:53;;;;;;;5.40;2.10;;;11.60;99.90;;;;;;5033358;28;20436;-64
2022/03/29 10:14:21;;;;;;;5.73;2.37;;;12.10;99.90;;;;;;5033315;28;20474;-66
2022/03/29 10:16:49;;;;;;;5.20;2.10;;;12.70;99.90;;;;;;5033368;28;20369;-63
2022/03/29 10:19:18;;;;;;;3.23;1.80;;;12.90;99.90;;;;;;5032901;28;20401;-63
2022/03/29 10:21:45;;;;;;;4.63;2.00;;;12.60;99.90;;;;;;5033370;28;20443;-67
2022/03/29 10:24:15;;;;;;;7.83;2.23;;;11.70;99.90;;;;;;5033286;28;20381;-67
2022/03/29 10:26:43;;;;;;;3.03;2.00;;;11.30;99.90;;;;;;5033041;28;20394;-66
2022/03/29 10:29:09;;;;;;;7.03;2.10;;;11.40;99.90;;;;;;5032682;28;20430;-63
2022/03/29 10:31:59;;;;;;;5.37;2.30;;;11.80;99.90;;;;;;5033318;28;20433;-64
2022/03/29 10:34:26;;;;;;;6.43;2.03;;;12.60;99.90;;;;;;5033257;28;20783;-68
2022/03/29 10:37:17;;;;;;;3.20;2.20;;;13.40;99.90;;;;;;5033334;28;20435;-67
2022/03/29 10:39:51;;;;;;;9.03;2.47;;;13.30;99.90;;;;;;5031292;28;20421;-67
2022/03/29 10:42:24;;;;;;;6.33;2.03;;;12.40;99.90;;;;;;5033232;28;20402;-67
2022/03/29 10:45:16;;;;;;;5.90;2.37;;;12.00;99.90;;;;;;5033197;28;20380;-63
2022/03/29 10:47:45;;;;;;;7.20;3.20;;;12.70;99.90;;;;;;5033711;28;20396;-63
2022/03/29 10:50:12;;;;;;;2.87;2.07;;;13.50;99.90;;;;;;5032825;28;20373;-67
2022/03/29 10:52:44;;;;;;;4.70;1.57;;;14.20;99.90;;;;;;5037055;28;20441;-66
2022/03/29 10:55:25;;;;;;;7.83;2.67;;;14.50;99.90;;;;;;5037086;28;20460;-63
2022/03/29 10:58:14;;;;;;;3.23;1.77;;;14.50;99.90;;;;;;5036915;28;20381;-64
2022/03/29 11:00:44;;;;;;;3.70;2.20;;;14.50;99.90;;;;;;5036214;28;20500;-64
2022/03/29 11:03:15;;;;;;;6.63;2.00;;;13.90;99.90;;;;;;5036836;28;20450;-67
2022/03/29 11:06:10;;;;;;;10.17;3.00;;;13.20;99.20;;;;;;5036893;28;20435;-67
2022/03/29 11:08:40;;;;;;;3.70;1.97;;;13.20;99.90;;;;;;5036123;28;20888;-64
2022/03/29 11:11:06;;;;;;;7.67;2.77;;;13.70;99.90;;;;;;5036593;28;20377;-67
2022/03/29 11:13:37;;;;;;;5.53;2.00;;;13.60;99.70;;;;;;5036834;28;20369;-67
2022/03/29 11:16:25;;;;;;;3.50;1.50;;;13.50;97.20;;;;;;5036631;28;20455;-63
2022/03/29 11:18:52;;;;;;;4.63;1.87;;;13.70;96.30;;;;;;5035636;28;20388;-63
2022/03/29 11:21:38;;;;;;;3.60;1.97;;;13.50;93.40;;;;;;5036279;28;20437;-63
2022/03/29 11:24:08;;;;;;;3.87;2.57;;;13.00;93.10;;;;;;5036586;28;20418;-63
2022/03/29 11:26:35;;;;;;;5.70;2.33;;;13.10;93.20;;;;;;5036348;28;20365;-67
2022/03/29 11:29:02;;;;;;;3.77;2.10;;;12.70;93.10;;;;;;5035657;28;20420;-64
2022/03/29 11:31:39;;;;;;;4.70;1.70;;;12.50;92.90;;;;;;5036321;28;20479;-67
2022/03/29 11:34:06;;;;;;;8.60;2.00;;;12.70;93.00;;;;;;5036438;28;20406;-63
2022/03/29 11:36:39;;;;;;;3.53;1.73;;;13.00;93.20;;;;;;5035204;28;20467;-63
2022/03/29 11:39:20;;;;;;;9.37;2.47;;;13.10;93.20;;;;;;5035552;28;20381;-67
2022/03/29 11:41:47;;;;;;;4.20;2.53;;;13.20;93.20;;;;;;5036186;28;20442;-63
2022/03/29 11:44:15;;;;;;;5.80;2.53;;;13.10;93.20;;;;;;5036261;28;20830;-63
2022/03/29 11:46:53;;;;;;;1.87;1.50;;;12.70;93.00;;;;;;5036162;28;20884;-63
2022/03/29 11:49:21;;;;;;;5.70;2.00;;;12.50;92.90;;;;;;5035326;28;20792;-67
2022/03/29 11:52:31;;;;;;;2.90;1.70;;;12.70;93.00;;;;;;5036087;28;20404;-64
2022/03/29 11:54:57;;;;;;;2.60;2.00;;;12.80;93.00;;;;;;5053851;28;20413;-64
2022/03/29 11:57:27;;;;;;;7.40;2.40;;;12.60;88.60;;;;;;5038376;28;20389;-64
2022/03/29 11:59:54;;;;;;;3.93;2.33;;;12.50;91.00;;;;;;5035112;28;20191;-63
2022/03/29 12:02:22;;;;;;;5.00;2.53;;;12.80;93.10;;;;;;5034554;28;20429;-68
2022/03/29 12:04:48;;;;;;;2.30;1.60;;;13.00;93.10;;;;;;5035668;28;20545;-67
2022/03/29 12:07:15;;;;;;;5.20;2.07;;;13.20;91.00;;;;;;5035576;28;20401;-68
2022/03/29 12:09:49;;;;;;;7.03;1.50;;;13.40;93.10;;;;;;5034922;28;20373;-63
2022/03/29 12:12:19;;;;;;;5.03;2.00;;;13.00;84.40;;;;;;5035634;28;20488;-63
2022/03/29 12:14:44;;;;;;;2.90;1.90;;;13.00;81.60;;;;;;5035543;28;20448;-64
2022/03/29 12:17:11;;;;;;;2.73;2.33;;;13.20;84.30;;;;;;5035554;28;20373;-64
2022/03/29 12:19:39;;;;;;;4.90;1.70;;;13.30;84.30;;;;;;5034719;28;20167;-67
2022/03/29 12:22:10;;;;;;;3.10;1.43;;;13.40;81.70;;;;;;5035508;28;20446;-67
2022/03/29 12:24:38;;;;;;;5.30;1.60;;;13.80;85.40;;;;;;5035336;28;20377;-64
2022/03/29 12:27:16;;;;;;;4.03;2.00;;;14.20;82.40;;;;;;5035394;28;20749;-64
2022/03/29 12:29:46;;;;;;;4.90;1.77;;;14.40;81.80;;;;;;5034605;28;20372;-64
2022/03/29 12:32:12;;;;;;;7.17;2.10;;;14.80;79.40;;;;;;5035154;28;20758;-68
2022/03/29 12:34:38;;;;;;;9.73;2.37;;;15.10;76.70;;;;;;5035386;28;20407;-68
2022/03/29 12:37:12;;;;;;;6.00;2.60;;;15.30;81.00;;;;;;5035131;28;20732;-63
2022/03/29 12:39:41;;;;;;;6.47;1.87;;;15.60;76.90;;;;;;5034277;28;20957;-65
2022/03/29 12:42:12;;;;;;;3.93;1.57;;;15.60;75.70;;;;;;5035218;28;20419;-64
2022/03/29 12:44:43;;;;;;;5.13;1.83;;;15.50;73.10;;;;;;5035350;28;20453;-67
2022/03/29 12:47:10;;;;;;;2.90;2.03;;;15.60;72.00;;;;;;5035018;28;20440;-63
2022/03/29 12:49:38;;;;;;;7.43;1.77;;;15.00;67.50;;;;;;5034177;28;20398;-68
2022/03/29 12:52:06;;;;;;;4.60;1.53;;;15.50;68.60;;;;;;5034785;28;20415;-64
2022/03/29 12:54:46;;;;;;;2.90;1.43;;;15.80;66.50;;;;;;5033859;28;20863;-63
2022/03/29 12:57:14;;;;;;;4.80;1.63;;;15.10;60.70;;;;;;5034912;28;20402;-64
2022/03/29 12:59:45;;;;;;;2.53;1.37;;;15.10;61.40;;;;;;5033894;28;20403;-68
2022/03/29 13:02:16;;;;;;;2.10;1.23;;;14.40;53.20;;;;;;5034689;28;20942;-68
2022/03/29 13:04:47;;;;;;;5.60;2.20;;;13.20;47.40;;;;;;5034701;28;20512;-64
2022/03/29 13:07:32;;;;;;;4.80;2.03;;;13.10;49.40;;;;;;5034614;28;20425;-63
2022/03/29 13:10:24;;;;;;;5.30;1.43;;;13.10;49.80;;;;;;5033848;28;20401;-67